Terminal Aerodrome Forecast
Issued by NWS

Home | Current Version | Previous Version | Text Only | Print | Product List | Glossary On
Versions: 1 2 3 4 5 6 7 8 9 10 11 12 13 14 15
480
FTUS42 KFFC 261736
TAFPDK
TAF
KPDK 261736Z 2618/2718 16004KT P6SM BKN040
     FM262200 15005KT P6SM VCSH BKN040
     FM270300 14004KT P6SM SCT050 BKN100
     FM270600 18004KT P6SM SCT015 BKN100
     FM271200 30004KT P6SM BKN025 BKN100
     FM271700 29006KT P6SM VCSH BKN035=

USA.gov is the U.S. government's official web portal to all federal, state and local government web resources and services.